sensor_id;sensor_type;location;lat;lon;timestamp;P1;durP1;ratioP1;P2;durP2;ratioP2
20232;SDS011;37438;55.674;13.074;2022-10-22T09:59:49;456.08;;;90.20;;
20232;SDS011;37438;55.674;13.074;2022-10-22T10:02:57;385.33;;;82.93;;
20232;SDS011;37438;55.674;13.074;2022-10-22T10:06:02;348.73;;;74.68;;
20232;SDS011;37438;55.674;13.074;2022-10-22T10:09:16;300.95;;;71.85;;
20232;SDS011;37438;55.674;13.074;2022-10-22T10:19:12;279.85;;;69.50;;
20232;SDS011;37438;55.674;13.074;2022-10-22T10:28:58;224.93;;;60.13;;
20232;SDS011;37438;55.674;13.074;2022-10-22T10:32:23;244.85;;;60.25;;
20232;SDS011;37438;55.674;13.074;2022-10-22T10:48:32;222.73;;;61.00;;
20232;SDS011;37438;55.674;13.074;2022-10-22T10:58:49;229.52;;;65.03;;
20232;SDS011;37438;55.674;13.074;2022-10-22T11:08:41;320.02;;;69.65;;
20232;SDS011;37438;55.674;13.074;2022-10-22T11:11:54;352.60;;;72.20;;
20232;SDS011;37438;55.674;13.074;2022-10-22T11:18:39;426.42;;;82.68;;
20232;SDS011;37438;55.674;13.074;2022-10-22T11:21:52;408.70;;;80.55;;
20232;SDS011;37438;55.674;13.074;2022-10-22T11:28:09;392.10;;;77.38;;
20232;SDS011;37438;55.674;13.074;2022-10-22T11:31:28;367.08;;;74.20;;
20232;SDS011;37438;55.674;13.074;2022-10-22T11:34:35;317.30;;;74.05;;
20232;SDS011;37438;55.674;13.074;2022-10-22T11:37:48;276.75;;;69.55;;
20232;SDS011;37438;55.674;13.074;2022-10-22T11:40:58;255.05;;;66.47;;
20232;SDS011;37438;55.674;13.074;2022-10-22T11:44:09;233.93;;;64.63;;
20232;SDS011;37438;55.674;13.074;2022-10-22T11:47:27;239.57;;;66.40;;
20232;SDS011;37438;55.674;13.074;2022-10-22T12:00:32;182.00;;;54.35;;
20232;SDS011;37438;55.674;13.074;2022-10-22T12:04:13;181.48;;;57.45;;
20232;SDS011;37438;55.674;13.074;2022-10-22T12:07:32;174.07;;;54.00;;
20232;SDS011;37438;55.674;13.074;2022-10-22T12:17:32;163.93;;;55.58;;
20232;SDS011;37438;55.674;13.074;2022-10-22T12:20:37;167.82;;;53.22;;
20232;SDS011;37438;55.674;13.074;2022-10-22T12:23:42;151.38;;;51.08;;
20232;SDS011;37438;55.674;13.074;2022-10-22T12:26:47;139.20;;;48.75;;
20232;SDS011;37438;55.674;13.074;2022-10-22T12:29:56;144.02;;;48.30;;
20232;SDS011;37438;55.674;13.074;2022-10-22T12:33:03;127.47;;;46.30;;
20232;SDS011;37438;55.674;13.074;2022-10-22T12:36:14;124.57;;;44.63;;
20232;SDS011;37438;55.674;13.074;2022-10-22T12:39:24;106.95;;;40.83;;
20232;SDS011;37438;55.674;13.074;2022-10-22T12:42:29;95.15;;;38.72;;
20232;SDS011;37438;55.674;13.074;2022-10-22T12:45:33;83.97;;;35.83;;
20232;SDS011;37438;55.674;13.074;2022-10-22T12:48:41;87.20;;;35.97;;
20232;SDS011;37438;55.674;13.074;2022-10-22T12:51:48;92.13;;;35.67;;
20232;SDS011;37438;55.674;13.074;2022-10-22T12:54:52;74.97;;;30.35;;
20232;SDS011;37438;55.674;13.074;2022-10-22T12:57:57;68.93;;;30.33;;
20232;SDS011;37438;55.674;13.074;2022-10-22T13:01:02;71.13;;;31.70;;
20232;SDS011;37438;55.674;13.074;2022-10-22T13:07:36;67.93;;;31.60;;
20232;SDS011;37438;55.674;13.074;2022-10-22T13:10:48;70.45;;;29.42;;
20232;SDS011;37438;55.674;13.074;2022-10-22T13:14:00;64.63;;;29.55;;
20232;SDS011;37438;55.674;13.074;2022-10-22T13:17:10;74.70;;;30.67;;
20232;SDS011;37438;55.674;13.074;2022-10-22T13:20:20;67.43;;;30.85;;
20232;SDS011;37438;55.674;13.074;2022-10-22T13:23:25;63.55;;;29.13;;
20232;SDS011;37438;55.674;13.074;2022-10-22T13:26:33;66.63;;;31.00;;
20232;SDS011;37438;55.674;13.074;2022-10-22T13:29:39;55.83;;;28.05;;
20232;SDS011;37438;55.674;13.074;2022-10-22T13:32:48;61.55;;;28.45;;
20232;SDS011;37438;55.674;13.074;2022-10-22T13:35:57;63.90;;;29.52;;
20232;SDS011;37438;55.674;13.074;2022-10-22T13:39:02;54.53;;;28.67;;
20232;SDS011;37438;55.674;13.074;2022-10-22T13:42:10;62.17;;;28.65;;
20232;SDS011;37438;55.674;13.074;2022-10-22T13:45:15;53.42;;;27.23;;
20232;SDS011;37438;55.674;13.074;2022-10-22T13:48:20;56.83;;;28.30;;
20232;SDS011;37438;55.674;13.074;2022-10-22T13:51:31;55.50;;;28.13;;
20232;SDS011;37438;55.674;13.074;2022-10-22T13:54:38;56.20;;;26.70;;
20232;SDS011;37438;55.674;13.074;2022-10-22T13:57:42;57.83;;;27.15;;
20232;SDS011;37438;55.674;13.074;2022-10-22T14:00:48;53.60;;;27.48;;
20232;SDS011;37438;55.674;13.074;2022-10-22T14:04:02;67.78;;;29.27;;
20232;SDS011;37438;55.674;13.074;2022-10-22T14:07:14;59.78;;;29.20;;
20232;SDS011;37438;55.674;13.074;2022-10-22T14:10:20;61.63;;;27.70;;
20232;SDS011;37438;55.674;13.074;2022-10-22T14:13:25;63.80;;;28.25;;
20232;SDS011;37438;55.674;13.074;2022-10-22T14:16:30;48.60;;;25.25;;
20232;SDS011;37438;55.674;13.074;2022-10-22T14:19:36;60.03;;;27.38;;
20232;SDS011;37438;55.674;13.074;2022-10-22T14:22:40;54.67;;;27.17;;
20232;SDS011;37438;55.674;13.074;2022-10-22T14:25:44;53.08;;;27.08;;
20232;SDS011;37438;55.674;13.074;2022-10-22T14:28:49;47.42;;;25.75;;
20232;SDS011;37438;55.674;13.074;2022-10-22T14:32:15;47.43;;;24.33;;
20232;SDS011;37438;55.674;13.074;2022-10-22T14:35:23;43.83;;;24.75;;
20232;SDS011;37438;55.674;13.074;2022-10-22T14:41:33;47.17;;;23.80;;
20232;SDS011;37438;55.674;13.074;2022-10-22T14:44:38;51.33;;;22.90;;
20232;SDS011;37438;55.674;13.074;2022-10-22T14:47:43;44.28;;;23.90;;
20232;SDS011;37438;55.674;13.074;2022-10-22T14:50:47;41.33;;;22.45;;
20232;SDS011;37438;55.674;13.074;2022-10-22T14:53:52;40.45;;;21.60;;
20232;SDS011;37438;55.674;13.074;2022-10-22T14:56:56;35.40;;;20.75;;
20232;SDS011;37438;55.674;13.074;2022-10-22T15:00:02;37.28;;;21.40;;
20232;SDS011;37438;55.674;13.074;2022-10-22T15:03:08;37.85;;;21.77;;
20232;SDS011;37438;55.674;13.074;2022-10-22T15:06:13;35.47;;;20.70;;
20232;SDS011;37438;55.674;13.074;2022-10-22T15:09:17;38.50;;;22.73;;
20232;SDS011;37438;55.674;13.074;2022-10-22T15:12:22;32.83;;;19.80;;
20232;SDS011;37438;55.674;13.074;2022-10-22T15:15:26;30.65;;;17.88;;
20232;SDS011;37438;55.674;13.074;2022-10-22T15:18:40;29.83;;;18.20;;
20232;SDS011;37438;55.674;13.074;2022-10-22T15:21:45;32.47;;;18.35;;
20232;SDS011;37438;55.674;13.074;2022-10-22T15:24:49;31.80;;;17.90;;
20232;SDS011;37438;55.674;13.074;2022-10-22T15:27:56;35.17;;;19.10;;
20232;SDS011;37438;55.674;13.074;2022-10-22T15:31:11;32.10;;;18.40;;
20232;SDS011;37438;55.674;13.074;2022-10-22T15:34:21;30.00;;;17.85;;
20232;SDS011;37438;55.674;13.074;2022-10-22T15:37:31;29.17;;;18.60;;
20232;SDS011;37438;55.674;13.074;2022-10-22T15:40:35;29.90;;;17.73;;
20232;SDS011;37438;55.674;13.074;2022-10-22T15:43:40;31.50;;;18.42;;
20232;SDS011;37438;55.674;13.074;2022-10-22T15:46:44;34.22;;;19.38;;
20232;SDS011;37438;55.674;13.074;2022-10-22T15:49:49;34.92;;;18.85;;
20232;SDS011;37438;55.674;13.074;2022-10-22T15:52:54;28.85;;;17.20;;
20232;SDS011;37438;55.674;13.074;2022-10-22T15:59:02;25.33;;;15.98;;
20232;SDS011;37438;55.674;13.074;2022-10-22T16:02:08;32.33;;;18.10;;
20232;SDS011;37438;55.674;13.074;2022-10-22T16:05:13;28.38;;;18.55;;
20232;SDS011;37438;55.674;13.074;2022-10-22T16:08:18;21.75;;;13.65;;
20232;SDS011;37438;55.674;13.074;2022-10-22T16:11:22;30.65;;;19.35;;
20232;SDS011;37438;55.674;13.074;2022-10-22T16:14:27;34.97;;;20.52;;
20232;SDS011;37438;55.674;13.074;2022-10-22T16:17:32;47.85;;;32.55;;
20232;SDS011;37438;55.674;13.074;2022-10-22T16:20:39;33.25;;;23.13;;
20232;SDS011;37438;55.674;13.074;2022-10-22T16:23:45;31.80;;;20.27;;
20232;SDS011;37438;55.674;13.074;2022-10-22T16:26:49;33.53;;;19.23;;
20232;SDS011;37438;55.674;13.074;2022-10-22T16:29:55;29.23;;;18.38;;
20232;SDS011;37438;55.674;13.074;2022-10-22T16:33:02;27.80;;;17.67;;
20232;SDS011;37438;55.674;13.074;2022-10-22T16:36:09;33.33;;;19.88;;
20232;SDS011;37438;55.674;13.074;2022-10-22T16:39:14;28.30;;;17.70;;
20232;SDS011;37438;55.674;13.074;2022-10-22T16:42:19;29.60;;;17.73;;
20232;SDS011;37438;55.674;13.074;2022-10-22T16:45:23;32.63;;;19.63;;
20232;SDS011;37438;55.674;13.074;2022-10-22T16:48:27;32.50;;;18.13;;
20232;SDS011;37438;55.674;13.074;2022-10-22T16:51:32;34.25;;;18.77;;
20232;SDS011;37438;55.674;13.074;2022-10-22T16:54:37;30.70;;;20.20;;
20232;SDS011;37438;55.674;13.074;2022-10-22T16:57:41;33.22;;;20.15;;
20232;SDS011;37438;55.674;13.074;2022-10-22T17:00:46;94.13;;;42.90;;
20232;SDS011;37438;55.674;13.074;2022-10-22T17:03:51;68.85;;;34.33;;
20232;SDS011;37438;55.674;13.074;2022-10-22T17:06:57;70.55;;;34.42;;
20232;SDS011;37438;55.674;13.074;2022-10-22T17:10:01;83.63;;;36.47;;
20232;SDS011;37438;55.674;13.074;2022-10-22T17:16:11;73.30;;;32.08;;
20232;SDS011;37438;55.674;13.074;2022-10-22T17:19:16;46.22;;;24.10;;
20232;SDS011;37438;55.674;13.074;2022-10-22T17:22:21;52.10;;;24.40;;
20232;SDS011;37438;55.674;13.074;2022-10-22T17:25:34;46.33;;;23.95;;
20232;SDS011;37438;55.674;13.074;2022-10-22T17:28:43;44.30;;;23.20;;
20232;SDS011;37438;55.674;13.074;2022-10-22T17:31:47;48.85;;;24.77;;
20232;SDS011;37438;55.674;13.074;2022-10-22T17:34:53;41.08;;;23.75;;
20232;SDS011;37438;55.674;13.074;2022-10-22T17:37:57;38.78;;;20.52;;
20232;SDS011;37438;55.674;13.074;2022-10-22T17:41:01;41.08;;;21.85;;
20232;SDS011;37438;55.674;13.074;2022-10-22T17:44:09;40.85;;;22.17;;
20232;SDS011;37438;55.674;13.074;2022-10-22T17:47:15;41.50;;;22.15;;
20232;SDS011;37438;55.674;13.074;2022-10-22T17:50:19;38.65;;;21.58;;
20232;SDS011;37438;55.674;13.074;2022-10-22T17:53:24;31.35;;;19.83;;
20232;SDS011;37438;55.674;13.074;2022-10-22T17:56:28;40.20;;;22.80;;
20232;SDS011;37438;55.674;13.074;2022-10-22T17:59:33;34.60;;;21.20;;
20232;SDS011;37438;55.674;13.074;2022-10-22T18:02:38;43.05;;;25.67;;
20232;SDS011;37438;55.674;13.074;2022-10-22T18:05:45;32.17;;;21.50;;
20232;SDS011;37438;55.674;13.074;2022-10-22T18:08:50;38.95;;;21.98;;
20232;SDS011;37438;55.674;13.074;2022-10-22T18:11:54;37.60;;;21.85;;
20232;SDS011;37438;55.674;13.074;2022-10-22T18:14:59;41.65;;;21.63;;
20232;SDS011;37438;55.674;13.074;2022-10-22T18:18:03;47.10;;;19.30;;
20232;SDS011;37438;55.674;13.074;2022-10-22T18:21:07;36.30;;;21.55;;
20232;SDS011;37438;55.674;13.074;2022-10-22T18:24:12;36.50;;;20.38;;
20232;SDS011;37438;55.674;13.074;2022-10-22T18:27:17;38.60;;;19.95;;
20232;SDS011;37438;55.674;13.074;2022-10-22T18:30:22;41.20;;;20.60;;
20232;SDS011;37438;55.674;13.074;2022-10-22T18:33:26;52.03;;;29.10;;
20232;SDS011;37438;55.674;13.074;2022-10-22T18:36:31;46.75;;;23.30;;
20232;SDS011;37438;55.674;13.074;2022-10-22T18:39:35;43.10;;;24.00;;
20232;SDS011;37438;55.674;13.074;2022-10-22T18:42:39;40.40;;;23.42;;
20232;SDS011;37438;55.674;13.074;2022-10-22T18:45:45;40.30;;;22.08;;
20232;SDS011;37438;55.674;13.074;2022-10-22T18:48:52;37.80;;;22.88;;
20232;SDS011;37438;55.674;13.074;2022-10-22T18:51:57;43.83;;;22.05;;
20232;SDS011;37438;55.674;13.074;2022-10-22T18:55:01;41.38;;;21.90;;
20232;SDS011;37438;55.674;13.074;2022-10-22T18:58:05;41.28;;;21.65;;
20232;SDS011;37438;55.674;13.074;2022-10-22T19:01:11;44.45;;;24.05;;
20232;SDS011;37438;55.674;13.074;2022-10-22T19:04:27;45.08;;;23.02;;
20232;SDS011;37438;55.674;13.074;2022-10-22T19:07:36;45.25;;;23.77;;
20232;SDS011;37438;55.674;13.074;2022-10-22T19:10:40;47.83;;;24.40;;
20232;SDS011;37438;55.674;13.074;2022-10-22T19:16:49;39.60;;;21.55;;
20232;SDS011;37438;55.674;13.074;2022-10-22T19:19:53;31.30;;;19.08;;
20232;SDS011;37438;55.674;13.074;2022-10-22T19:26:05;39.70;;;23.55;;
20232;SDS011;37438;55.674;13.074;2022-10-22T19:29:13;39.53;;;21.60;;
20232;SDS011;37438;55.674;13.074;2022-10-22T19:32:19;43.33;;;22.63;;
20232;SDS011;37438;55.674;13.074;2022-10-22T19:35:24;43.35;;;22.92;;
20232;SDS011;37438;55.674;13.074;2022-10-22T19:38:28;41.15;;;21.20;;
20232;SDS011;37438;55.674;13.074;2022-10-22T19:41:33;37.15;;;20.98;;
20232;SDS011;37438;55.674;13.074;2022-10-22T19:44:37;36.17;;;21.35;;
20232;SDS011;37438;55.674;13.074;2022-10-22T19:47:42;42.30;;;22.30;;
20232;SDS011;37438;55.674;13.074;2022-10-22T19:50:46;46.80;;;23.60;;
20232;SDS011;37438;55.674;13.074;2022-10-22T19:53:58;46.67;;;25.30;;
20232;SDS011;37438;55.674;13.074;2022-10-22T19:57:04;54.22;;;26.67;;
20232;SDS011;37438;55.674;13.074;2022-10-22T20:00:09;53.55;;;25.83;;
20232;SDS011;37438;55.674;13.074;2022-10-22T20:03:13;50.17;;;24.30;;
20232;SDS011;37438;55.674;13.074;2022-10-22T20:06:18;45.53;;;24.23;;
20232;SDS011;37438;55.674;13.074;2022-10-22T20:09:24;48.60;;;23.42;;
20232;SDS011;37438;55.674;13.074;2022-10-22T20:12:28;56.92;;;26.17;;
20232;SDS011;37438;55.674;13.074;2022-10-22T20:15:33;63.80;;;26.70;;
20232;SDS011;37438;55.674;13.074;2022-10-22T20:18:38;52.08;;;24.67;;
20232;SDS011;37438;55.674;13.074;2022-10-22T20:21:43;42.08;;;18.05;;
20232;SDS011;37438;55.674;13.074;2022-10-22T20:24:48;62.22;;;25.77;;
20232;SDS011;37438;55.674;13.074;2022-10-22T20:27:53;69.22;;;23.08;;
20232;SDS011;37438;55.674;13.074;2022-10-22T20:30:57;69.78;;;31.52;;
20232;SDS011;37438;55.674;13.074;2022-10-22T20:34:02;79.97;;;29.25;;
20232;SDS011;37438;55.674;13.074;2022-10-22T20:40:11;68.03;;;29.58;;
20232;SDS011;37438;55.674;13.074;2022-10-22T20:43:16;75.30;;;28.50;;
20232;SDS011;37438;55.674;13.074;2022-10-22T20:46:25;80.38;;;28.33;;
20232;SDS011;37438;55.674;13.074;2022-10-22T20:49:32;83.55;;;27.88;;
20232;SDS011;37438;55.674;13.074;2022-10-22T20:52:36;81.10;;;28.95;;
20232;SDS011;37438;55.674;13.074;2022-10-22T20:55:41;118.97;;;31.70;;
20232;SDS011;37438;55.674;13.074;2022-10-22T20:58:45;94.95;;;28.45;;
20232;SDS011;37438;55.674;13.074;2022-10-22T21:01:52;95.22;;;31.58;;
20232;SDS011;37438;55.674;13.074;2022-10-22T21:04:57;109.32;;;30.50;;
20232;SDS011;37438;55.674;13.074;2022-10-22T21:08:01;139.90;;;34.83;;
20232;SDS011;37438;55.674;13.074;2022-10-22T21:11:07;101.90;;;32.70;;
20232;SDS011;37438;55.674;13.074;2022-10-22T21:14:13;113.80;;;33.03;;
20232;SDS011;37438;55.674;13.074;2022-10-22T21:17:19;97.57;;;28.98;;
20232;SDS011;37438;55.674;13.074;2022-10-22T21:20:23;128.98;;;31.85;;
20232;SDS011;37438;55.674;13.074;2022-10-22T21:23:28;91.25;;;31.08;;
20232;SDS011;37438;55.674;13.074;2022-10-22T21:26:35;100.28;;;30.85;;
20232;SDS011;37438;55.674;13.074;2022-10-22T21:29:40;94.05;;;29.90;;
20232;SDS011;37438;55.674;13.074;2022-10-22T21:32:45;113.35;;;33.63;;
20232;SDS011;37438;55.674;13.074;2022-10-22T21:35:50;98.82;;;29.52;;
20232;SDS011;37438;55.674;13.074;2022-10-22T21:38:55;107.05;;;32.47;;
20232;SDS011;37438;55.674;13.074;2022-10-22T21:41:59;131.75;;;35.00;;
20232;SDS011;37438;55.674;13.074;2022-10-22T21:45:04;119.68;;;34.95;;
20232;SDS011;37438;55.674;13.074;2022-10-22T21:48:17;112.15;;;29.88;;
20232;SDS011;37438;55.674;13.074;2022-10-22T21:51:22;138.30;;;34.30;;
20232;SDS011;37438;55.674;13.074;2022-10-22T21:54:28;135.77;;;32.50;;
20232;SDS011;37438;55.674;13.074;2022-10-22T21:57:32;156.48;;;35.20;;
20232;SDS011;37438;55.674;13.074;2022-10-22T22:00:37;188.18;;;38.80;;
20232;SDS011;37438;55.674;13.074;2022-10-22T22:03:42;158.40;;;34.40;;
20232;SDS011;37438;55.674;13.074;2022-10-22T22:06:48;165.25;;;36.60;;
20232;SDS011;37438;55.674;13.074;2022-10-22T22:09:52;146.45;;;33.40;;
20232;SDS011;37438;55.674;13.074;2022-10-22T22:12:57;135.52;;;33.58;;
20232;SDS011;37438;55.674;13.074;2022-10-22T22:16:05;132.50;;;33.80;;
20232;SDS011;37438;55.674;13.074;2022-10-22T22:19:11;111.75;;;32.35;;
20232;SDS011;37438;55.674;13.074;2022-10-22T22:22:16;122.05;;;32.55;;
20232;SDS011;37438;55.674;13.074;2022-10-22T22:25:20;109.55;;;32.83;;
20232;SDS011;37438;55.674;13.074;2022-10-22T22:28:25;114.43;;;35.25;;
20232;SDS011;37438;55.674;13.074;2022-10-22T22:31:32;98.82;;;32.97;;
20232;SDS011;37438;55.674;13.074;2022-10-22T22:34:37;119.07;;;34.55;;
20232;SDS011;37438;55.674;13.074;2022-10-22T22:37:41;126.28;;;37.83;;
20232;SDS011;37438;55.674;13.074;2022-10-22T22:43:51;108.07;;;33.37;;
20232;SDS011;37438;55.674;13.074;2022-10-22T22:46:55;107.88;;;33.78;;
20232;SDS011;37438;55.674;13.074;2022-10-22T22:50:00;113.63;;;31.35;;
20232;SDS011;37438;55.674;13.074;2022-10-22T22:53:04;97.95;;;32.33;;
20232;SDS011;37438;55.674;13.074;2022-10-22T22:56:19;115.22;;;33.15;;
20232;SDS011;37438;55.674;13.074;2022-10-22T22:59:25;103.80;;;33.00;;
20232;SDS011;37438;55.674;13.074;2022-10-22T23:02:30;121.50;;;35.05;;
20232;SDS011;37438;55.674;13.074;2022-10-22T23:05:35;105.45;;;31.90;;
20232;SDS011;37438;55.674;13.074;2022-10-22T23:08:40;115.45;;;35.00;;
20232;SDS011;37438;55.674;13.074;2022-10-22T23:11:45;107.07;;;33.25;;
20232;SDS011;37438;55.674;13.074;2022-10-22T23:14:49;99.72;;;33.78;;
20232;SDS011;37438;55.674;13.074;2022-10-22T23:17:54;109.82;;;34.20;;
20232;SDS011;37438;55.674;13.074;2022-10-22T23:21:01;98.50;;;33.55;;
20232;SDS011;37438;55.674;13.074;2022-10-22T23:24:08;113.43;;;36.28;;
20232;SDS011;37438;55.674;13.074;2022-10-22T23:27:15;108.22;;;34.90;;
20232;SDS011;37438;55.674;13.074;2022-10-22T23:30:20;110.70;;;35.67;;
20232;SDS011;37438;55.674;13.074;2022-10-22T23:33:25;115.57;;;39.88;;
20232;SDS011;37438;55.674;13.074;2022-10-22T23:36:29;112.60;;;38.05;;
20232;SDS011;37438;55.674;13.074;2022-10-22T23:39:34;126.82;;;38.63;;
20232;SDS011;37438;55.674;13.074;2022-10-22T23:42:38;130.07;;;41.97;;
20232;SDS011;37438;55.674;13.074;2022-10-22T23:45:43;113.00;;;39.10;;
20232;SDS011;37438;55.674;13.074;2022-10-22T23:48:47;116.60;;;38.20;;
20232;SDS011;37438;55.674;13.074;2022-10-22T23:51:51;130.40;;;40.78;;
20232;SDS011;37438;55.674;13.074;2022-10-22T23:54:56;124.07;;;41.30;;
20232;SDS011;37438;55.674;13.074;2022-10-22T23:58:00;125.35;;;40.20;;
